This is the latest recevied weather packets stored in our database for station/object KK4MOR. If no packets are shown the sender has not sent any weather packets the latest 10 day(s).
| Time | Temp. | Humidity | Pressure | Rain* | Wind** | Luminosity | Snow |
|---|---|---|---|---|---|---|---|
| 1787788826 | 21.67° C | 93% | 1012.3 hPa | 0 mm | - | - | - |
| 1787787927 | 21.67° C | 93% | 1012.4 hPa | 0 mm | - | - | - |
| 1787787024 | 21.67° C | 93% | 1012.4 hPa | 0 mm | - | - | - |
| 1787786126 | 21.11° C | 94% | 1012.6 hPa | 0 mm | - | - | - |
| 1787785225 | 21.11° C | 94% | 1012.7 hPa | 0 mm | - | - | - |
| 1787784326 | 21.11° C | 94% | 1012.7 hPa | 0 mm | - | - | - |
| 1787783423 | 21.11° C | 94% | 1012.3 hPa | 0.25 mm | - | - | - |
| 1787782522 | 21.11° C | 94% | 1012.1 hPa | 0.25 mm | - | - | - |
| 1787781622 | 21.11° C | 94% | 1012 hPa | 0.25 mm | - | - | - |
| 1787780723 | 21.11° C | 94% | 1011.5 hPa | 0.25 mm | - | - | - |
| 1787779834 | 21.11° C | 93% | 1011.8 hPa | 0.25 mm | - | - | - |
| 1787778917 | 21.11° C | 92% | 1012.1 hPa | 0.25 mm | - | - | - |
| 1787778021 | 21.67° C | 91% | 1012.6 hPa | 0.25 mm | - | - | - |
| 1787777113 | 22.78° C | 88% | 1012.8 hPa | 0.25 mm | - | - | - |
| 1787776212 | 23.89° C | 85% | 1012.9 hPa | 0 mm | - | - | - |
| 1787775312 | 24.44° C | 82% | 1013 hPa | 0 mm | - | - | - |
| 1787774427 | 25.56° C | 84% | 1012.9 hPa | 0 mm | - | - | - |
| 1787773510 | 26.67° C | 82% | 1012.8 hPa | 0 mm | - | - | - |
| 1787772610 | 27.78° C | 76% | 1012.9 hPa | 0 mm | - | - | - |
| 1787771722 | 29.44° C | 71% | 1013 hPa | 0 mm | - | - | - |
| 1787770807 | 29.44° C | 67% | 1013.6 hPa | 0 mm | - | - | - |
| 1787769905 | 30° C | 62% | 1013.8 hPa | 0 mm | - | - | - |
| 1787769003 | 30° C | 60% | 1013.5 hPa | 0 mm | - | - | - |
| 1787768103 | 30° C | 62% | 1013.3 hPa | 0 mm | - | - | - |
| 1787767273 | 30° C | 58% | 1013.5 hPa | 0 mm | - | - | - |
* Rain latest hour (hover to see other rain measurements)
** Current wind speed in m/s (hover to see current wind gust speed)